createdAt,value
2019-01-17T00:00:05.653Z,82.04
2019-01-17T00:01:05.639Z,82.46
2019-01-17T00:02:05.631Z,83.81
2019-01-17T00:03:05.619Z,82.87
2019-01-17T00:04:05.608Z,83.70
2019-01-17T00:05:05.598Z,83.19
2019-01-17T00:06:05.585Z,83.81
2019-01-17T00:07:05.574Z,84.01
2019-01-17T00:08:05.561Z,82.98
2019-01-17T00:09:05.554Z,82.98
2019-01-17T00:10:05.541Z,83.08
2019-01-17T00:11:05.532Z,83.81
2019-01-17T00:12:05.518Z,82.77
2019-01-17T00:13:05.507Z,83.66
2019-01-17T00:14:05.497Z,83.50
2019-01-17T00:15:05.485Z,83.39
2019-01-17T00:16:05.480Z,82.77
2019-01-17T00:17:05.463Z,84.22
2019-01-17T00:18:05.452Z,83.81
2019-01-17T00:19:05.442Z,83.85
2019-01-17T00:20:05.432Z,83.95
2019-01-17T00:21:05.423Z,83.53
2019-01-17T00:22:05.411Z,84.88
2019-01-17T00:23:05.399Z,84.57
2019-01-17T00:24:05.386Z,84.05
2019-01-17T00:25:05.375Z,85.50
2019-01-17T00:26:05.367Z,85.81
2019-01-17T00:27:05.359Z,84.88
2019-01-17T00:28:05.344Z,85.40
2019-01-17T00:29:06.173Z,85.29
2019-01-17T00:30:05.322Z,84.78
2019-01-17T00:31:05.310Z,85.40
2019-01-17T00:32:05.301Z,85.71
2019-01-17T00:33:05.289Z,85.08
2019-01-17T00:34:05.280Z,85.98
2019-01-17T00:35:05.270Z,86.09
2019-01-17T00:36:05.257Z,85.88
2019-01-17T00:37:05.245Z,86.60
2019-01-17T00:38:05.236Z,86.91
2019-01-17T00:39:05.223Z,86.70
2019-01-17T00:40:05.215Z,85.88
2019-01-17T00:41:05.207Z,85.36
2019-01-17T00:42:05.190Z,85.77
2019-01-17T00:43:05.182Z,86.09
2019-01-17T00:44:05.169Z,85.57
2019-01-17T00:45:05.159Z,86.29
2019-01-17T00:46:05.151Z,85.67
2019-01-17T00:47:05.138Z,86.39
2019-01-17T00:48:05.127Z,85.77
2019-01-17T00:49:05.115Z,86.09
2019-01-17T00:50:05.105Z,86.91
2019-01-17T00:51:05.094Z,86.91
2019-01-17T00:52:05.082Z,87.37
2019-01-17T00:53:05.076Z,87.88
2019-01-17T00:54:09.041Z,88.40
2019-01-17T00:55:05.048Z,88.29
2019-01-17T00:56:05.039Z,88.29
2019-01-17T00:57:05.027Z,87.37
2019-01-17T00:58:05.018Z,87.37
2019-01-17T00:59:05.004Z,87.53
2019-01-17T01:00:04.994Z,87.01
2019-01-17T01:01:04.983Z,88.15
2019-01-17T01:02:04.972Z,89.70
2019-01-17T01:03:04.961Z,89.81
2019-01-17T01:04:04.959Z,89.44
2019-01-17T01:05:04.940Z,89.44
2019-01-17T01:06:04.928Z,89.44
2019-01-17T01:07:04.918Z,90.16
2019-01-17T01:08:04.906Z,90.67
2019-01-17T01:09:04.900Z,91.09
2019-01-17T01:10:04.886Z,91.82
2019-01-17T01:11:04.881Z,92.02
2019-01-17T01:12:04.862Z,92.34
2019-01-17T01:13:04.858Z,92.85
2019-01-17T01:14:04.845Z,92.99
2019-01-17T01:15:04.837Z,93.31
2019-01-17T01:16:04.820Z,93.62
2019-01-17T01:17:04.813Z,93.82
2019-01-17T01:18:04.798Z,93.72
2019-01-17T01:19:04.790Z,93.93
2019-01-17T01:20:04.779Z,94.24
2019-01-17T01:21:04.771Z,94.34
2019-01-17T01:22:04.756Z,94.14
2019-01-17T01:23:04.749Z,94.34
2019-01-17T01:24:04.732Z,94.97
2019-01-17T01:25:04.724Z,95.28
2019-01-17T01:26:04.710Z,95.63
2019-01-17T01:27:04.701Z,95.59
2019-01-17T01:28:04.690Z,95.53
2019-01-17T01:29:04.691Z,95.59
2019-01-17T01:30:04.670Z,95.42
2019-01-17T01:31:04.657Z,95.42
2019-01-17T01:32:04.646Z,95.73
2019-01-17T01:33:04.640Z,95.94
2019-01-17T01:34:04.625Z,95.94
2019-01-17T01:35:04.615Z,96.05
2019-01-17T01:36:04.602Z,96.36
2019-01-17T01:37:04.591Z,96.56
2019-01-17T01:38:04.584Z,96.67
2019-01-17T01:39:04.569Z,96.88
2019-01-17T01:40:04.559Z,97.29
2019-01-17T01:41:04.550Z,97.29
2019-01-17T01:42:04.538Z,97.08
2019-01-17T01:43:04.526Z,96.98
2019-01-17T01:44:04.514Z,96.98
2019-01-17T01:45:04.520Z,97.29
2019-01-17T01:46:04.532Z,97.39
2019-01-17T01:47:04.483Z,96.98
2019-01-17T01:48:04.472Z,96.77
2019-01-17T01:49:04.461Z,96.88
2019-01-17T01:50:04.448Z,96.98
2019-01-17T01:51:04.439Z,96.88
2019-01-17T01:52:04.434Z,96.77
2019-01-17T01:53:04.418Z,96.88
2019-01-17T01:54:04.403Z,96.77
2019-01-17T01:55:04.393Z,96.67
2019-01-17T01:56:04.386Z,96.98
2019-01-17T01:57:04.372Z,97.19
2019-01-17T01:58:04.362Z,97.39
2019-01-17T01:59:04.352Z,97.39
2019-01-17T02:00:04.342Z,97.49
2019-01-17T02:01:04.329Z,97.60
2019-01-17T02:02:04.318Z,97.80
2019-01-17T02:03:04.308Z,97.80
2019-01-17T02:04:04.295Z,97.60
2019-01-17T02:05:04.286Z,97.66
2019-01-17T02:06:04.275Z,97.66
2019-01-17T02:07:04.264Z,97.55
2019-01-17T02:08:04.262Z,97.55
2019-01-17T02:09:04.240Z,97.66
2019-01-17T02:10:04.230Z,97.66
2019-01-17T02:11:04.220Z,97.24
2019-01-17T02:12:04.211Z,97.14
2019-01-17T02:13:04.199Z,97.03
2019-01-17T02:14:04.185Z,97.03
2019-01-17T02:15:04.176Z,97.03
2019-01-17T02:16:04.162Z,96.83
2019-01-17T02:17:04.160Z,96.62
2019-01-17T02:18:04.143Z,96.62
2019-01-17T02:19:04.131Z,96.72
2019-01-17T02:20:04.121Z,96.83
2019-01-17T02:21:04.109Z,96.83
2019-01-17T02:22:04.098Z,96.83
2019-01-17T02:23:04.089Z,97.03
2019-01-17T02:24:04.077Z,97.14
2019-01-17T02:25:04.064Z,97.14
2019-01-17T02:26:04.054Z,97.24
2019-01-17T02:27:04.045Z,97.20
2019-01-17T02:28:04.033Z,97.10
2019-01-17T02:29:04.022Z,96.99
2019-01-17T02:30:04.011Z,97.03
2019-01-17T02:31:03.999Z,97.24
2019-01-17T02:32:03.989Z,97.45
2019-01-17T02:33:03.976Z,97.55
2019-01-17T02:34:03.965Z,97.45
2019-01-17T02:35:03.958Z,97.55
2019-01-17T02:36:03.947Z,97.45
2019-01-17T02:37:03.936Z,97.55
2019-01-17T02:38:03.923Z,97.61
2019-01-17T02:39:03.911Z,97.51
2019-01-17T02:40:03.900Z,97.41
2019-01-17T02:41:03.893Z,97.10
2019-01-17T02:42:03.881Z,96.89
2019-01-17T02:43:03.910Z,96.78
2019-01-17T02:44:03.857Z,96.89
2019-01-17T02:45:03.850Z,96.58
2019-01-17T02:46:03.835Z,96.68
2019-01-17T02:47:03.825Z,96.58
2019-01-17T02:48:03.814Z,96.58
2019-01-17T02:49:03.802Z,96.58
2019-01-17T02:50:03.791Z,96.89
2019-01-17T02:51:03.780Z,97.30
2019-01-17T02:52:03.770Z,97.30
2019-01-17T02:53:03.759Z,97.41
2019-01-17T02:54:03.852Z,97.20
2019-01-17T02:55:03.742Z,97.20
2019-01-17T02:56:03.728Z,97.41
2019-01-17T02:57:03.718Z,97.41
2019-01-17T02:58:03.705Z,97.30
2019-01-17T02:59:03.696Z,96.74
2019-01-17T03:00:03.682Z,96.53
2019-01-17T03:01:03.675Z,96.64
2019-01-17T03:02:03.666Z,96.74
2019-01-17T03:03:03.660Z,96.43
2019-01-17T03:04:03.644Z,96.06
2019-01-17T03:05:03.635Z,96.02
2019-01-17T03:06:03.623Z,96.22
2019-01-17T03:07:03.622Z,96.33
2019-01-17T03:08:03.597Z,96.43
2019-01-17T03:09:03.594Z,96.33
2019-01-17T03:10:03.576Z,96.02
2019-01-17T03:11:03.565Z,95.91
2019-01-17T03:12:03.553Z,95.50
2019-01-17T03:13:03.542Z,95.08
2019-01-17T03:14:03.542Z,95.29
2019-01-17T03:15:03.522Z,95.70
2019-01-17T03:16:03.527Z,95.81
2019-01-17T03:17:03.498Z,95.70
2019-01-17T03:18:03.489Z,95.70
2019-01-17T03:19:03.486Z,96.02
2019-01-17T03:20:03.469Z,96.22
2019-01-17T03:21:03.455Z,96.33
2019-01-17T03:22:03.448Z,96.64
2019-01-17T03:23:03.432Z,97.05
2019-01-17T03:24:03.423Z,97.15
2019-01-17T03:25:03.411Z,97.20
2019-01-17T03:26:03.402Z,97.51
2019-01-17T03:27:03.389Z,97.82
2019-01-17T03:28:03.377Z,98.13
2019-01-17T03:29:03.367Z,98.23
2019-01-17T03:30:03.379Z,98.33
2019-01-17T03:31:03.357Z,98.49
2019-01-17T03:32:03.346Z,98.59
2019-01-17T03:33:03.338Z,98.49
2019-01-17T03:34:03.313Z,98.59
2019-01-17T03:35:03.301Z,98.80
2019-01-17T03:36:03.291Z,99.01
2019-01-17T03:37:03.279Z,99.01
2019-01-17T03:38:03.267Z,99.01
2019-01-17T03:39:03.257Z,99.11
2019-01-17T03:40:03.257Z,98.90
2019-01-17T03:41:03.237Z,98.80
2019-01-17T03:42:03.224Z,98.80
2019-01-17T03:43:03.213Z,98.80
2019-01-17T03:44:03.203Z,98.80
2019-01-17T03:45:03.205Z,98.80
2019-01-17T03:46:03.182Z,98.80
2019-01-17T03:47:03.168Z,99.11
2019-01-17T03:48:03.158Z,99.42
2019-01-17T03:49:03.149Z,99.42
2019-01-17T03:50:03.138Z,99.52
2019-01-17T03:51:03.126Z,99.52
2019-01-17T03:52:03.118Z,99.52
2019-01-17T03:53:03.115Z,99.62
2019-01-17T03:54:03.094Z,99.73
2019-01-17T03:55:03.083Z,99.73
2019-01-17T03:56:03.075Z,99.83
2019-01-17T03:57:03.064Z,99.73
2019-01-17T03:58:03.051Z,99.73
2019-01-17T03:59:03.038Z,99.78
2019-01-17T04:00:03.034Z,99.99
2019-01-17T04:01:03.017Z,99.99
2019-01-17T04:02:03.007Z,99.99
2019-01-17T04:03:02.994Z,99.99
2019-01-17T04:04:03.000Z,99.99
2019-01-17T04:05:02.977Z,99.99
2019-01-17T04:06:02.963Z,99.99
2019-01-17T04:07:02.954Z,99.99
2019-01-17T04:08:02.943Z,99.99
2019-01-17T04:09:02.937Z,99.99
2019-01-17T04:10:02.920Z,99.99
2019-01-17T04:11:02.908Z,99.99
2019-01-17T04:12:02.898Z,99.99
2019-01-17T04:13:02.888Z,99.99
2019-01-17T04:14:02.877Z,99.99
2019-01-17T04:15:02.863Z,99.99
2019-01-17T04:16:02.859Z,99.99
2019-01-17T04:17:02.844Z,99.99
2019-01-17T04:18:02.837Z,99.99
2019-01-17T04:19:02.821Z,99.99
2019-01-17T04:20:02.809Z,99.93
2019-01-17T04:21:02.798Z,99.73
2019-01-17T04:22:02.792Z,99.62
2019-01-17T04:23:02.782Z,99.32
2019-01-17T04:24:02.768Z,99.32
2019-01-17T04:25:02.756Z,99.21
2019-01-17T04:26:02.743Z,99.32
2019-01-17T04:27:02.741Z,99.42
2019-01-17T04:28:02.723Z,99.62
2019-01-17T04:29:02.712Z,99.73
2019-01-17T04:30:02.712Z,99.83
2019-01-17T04:31:02.690Z,99.83
2019-01-17T04:32:02.680Z,99.73
2019-01-17T04:33:02.666Z,99.52
2019-01-17T04:34:02.656Z,99.42
2019-01-17T04:35:02.646Z,99.32
2019-01-17T04:36:02.634Z,99.16
2019-01-17T04:37:02.622Z,99.06
2019-01-17T04:38:02.611Z,99.01
2019-01-17T04:39:02.605Z,98.75
2019-01-17T04:40:02.591Z,98.69
2019-01-17T04:41:02.582Z,98.38
2019-01-17T04:42:02.571Z,98.44
2019-01-17T04:43:02.560Z,98.44
2019-01-17T04:44:02.550Z,98.49
2019-01-17T04:45:02.539Z,98.69
2019-01-17T04:46:02.526Z,98.69
2019-01-17T04:47:02.516Z,99.01
2019-01-17T04:48:02.508Z,99.11
2019-01-17T04:49:02.497Z,99.21
2019-01-17T04:50:02.482Z,99.21
2019-01-17T04:51:02.475Z,99.21
2019-01-17T04:52:02.462Z,99.32
2019-01-17T04:53:02.454Z,99.32
2019-01-17T04:54:02.499Z,99.21
2019-01-17T04:55:05.351Z,99.21
2019-01-17T04:56:02.419Z,99.32
2019-01-17T04:57:02.410Z,99.32
2019-01-17T04:58:02.399Z,99.21
2019-01-17T04:59:02.387Z,99.32
2019-01-17T05:00:02.376Z,99.36
2019-01-17T05:01:02.365Z,99.42
2019-01-17T05:02:02.355Z,99.42
2019-01-17T05:03:02.347Z,99.42
2019-01-17T05:04:02.333Z,99.42
2019-01-17T05:05:02.323Z,99.52
2019-01-17T05:06:02.311Z,99.42
2019-01-17T05:07:02.299Z,99.27
2019-01-17T05:08:02.293Z,99.06
2019-01-17T05:09:02.280Z,98.75
2019-01-17T05:10:02.268Z,98.33
2019-01-17T05:11:02.257Z,98.03
2019-01-17T05:12:02.246Z,97.72
2019-01-17T05:13:02.238Z,97.82
2019-01-17T05:14:02.227Z,97.82
2019-01-17T05:15:02.215Z,97.82
2019-01-17T05:16:02.212Z,97.72
2019-01-17T05:17:02.205Z,97.82
2019-01-17T05:18:02.184Z,97.82
2019-01-17T05:19:02.173Z,97.93
2019-01-17T05:20:02.160Z,97.72
2019-01-17T05:21:02.150Z,97.72
2019-01-17T05:22:02.141Z,97.61
2019-01-17T05:23:02.132Z,97.20
2019-01-17T05:24:02.118Z,96.68
2019-01-17T05:25:02.110Z,96.68
2019-01-17T05:26:02.101Z,96.89
2019-01-17T05:27:02.086Z,97.10
2019-01-17T05:28:02.081Z,96.99
2019-01-17T05:29:02.071Z,97.20
2019-01-17T05:30:02.054Z,97.66
2019-01-17T05:31:02.044Z,97.86
2019-01-17T05:32:02.032Z,98.07
2019-01-17T05:33:02.022Z,98.07
2019-01-17T05:34:02.017Z,98.07
2019-01-17T05:35:02.003Z,98.07
2019-01-17T05:36:01.989Z,97.76
2019-01-17T05:37:01.979Z,97.41
2019-01-17T05:38:01.966Z,97.51
2019-01-17T05:39:01.959Z,97.61
2019-01-17T05:40:01.947Z,97.66
2019-01-17T05:41:01.933Z,97.72
2019-01-17T05:42:01.922Z,97.55
2019-01-17T05:43:01.911Z,97.55
2019-01-17T05:44:01.901Z,97.66
2019-01-17T05:45:01.895Z,97.66
2019-01-17T05:46:01.881Z,97.66
2019-01-17T05:47:01.870Z,97.76
2019-01-17T05:48:01.858Z,98.07
2019-01-17T05:49:01.849Z,98.07
2019-01-17T05:50:01.842Z,98.07
2019-01-17T05:51:01.827Z,97.76
2019-01-17T05:52:01.816Z,97.86
2019-01-17T05:53:01.804Z,97.76
2019-01-17T05:54:01.792Z,97.66
2019-01-17T05:55:01.781Z,97.66
2019-01-17T05:56:01.772Z,97.55
2019-01-17T05:57:01.760Z,97.55
2019-01-17T05:58:01.751Z,97.76
2019-01-17T05:59:01.757Z,97.55
2019-01-17T06:00:01.730Z,97.55
2019-01-17T06:01:01.718Z,97.76
2019-01-17T06:02:01.708Z,97.86
2019-01-17T06:03:01.697Z,98.07
2019-01-17T06:04:01.686Z,98.07
2019-01-17T06:05:01.674Z,97.97
2019-01-17T06:06:01.662Z,97.86
2019-01-17T06:07:01.656Z,97.76
2019-01-17T06:08:01.642Z,97.80
2019-01-17T06:09:01.629Z,97.80
2019-01-17T06:10:01.620Z,97.80
2019-01-17T06:11:01.608Z,97.91
2019-01-17T06:12:01.597Z,98.01
2019-01-17T06:13:01.586Z,98.01
2019-01-17T06:14:01.577Z,98.12
2019-01-17T06:15:01.578Z,97.91
2019-01-17T06:16:01.555Z,97.91
2019-01-17T06:17:01.546Z,97.86
2019-01-17T06:18:01.532Z,97.76
2019-01-17T06:19:01.522Z,97.66
2019-01-17T06:20:01.515Z,97.55
2019-01-17T06:21:01.501Z,97.55
2019-01-17T06:22:01.501Z,97.45
2019-01-17T06:23:01.480Z,97.66
2019-01-17T06:24:01.469Z,97.76
2019-01-17T06:25:01.460Z,97.86
2019-01-17T06:26:01.448Z,97.76
2019-01-17T06:27:01.436Z,97.55
2019-01-17T06:28:01.423Z,97.76
2019-01-17T06:29:01.416Z,97.55
2019-01-17T06:30:01.405Z,97.35
2019-01-17T06:31:01.393Z,97.14
2019-01-17T06:32:01.381Z,97.03
2019-01-17T06:33:01.370Z,97.24
2019-01-17T06:34:01.360Z,97.45
2019-01-17T06:35:01.353Z,97.45
2019-01-17T06:36:01.341Z,97.45
2019-01-17T06:37:01.329Z,97.45
2019-01-17T06:38:01.317Z,97.35
2019-01-17T06:39:01.309Z,97.35
2019-01-17T06:40:01.315Z,97.14
2019-01-17T06:41:01.283Z,97.03
2019-01-17T06:42:01.275Z,97.24
2019-01-17T06:43:01.264Z,97.55
2019-01-17T06:44:01.254Z,97.66
2019-01-17T06:45:01.246Z,97.86
2019-01-17T06:46:01.230Z,97.97
2019-01-17T06:47:01.220Z,97.86
2019-01-17T06:48:01.210Z,97.61
2019-01-17T06:49:01.203Z,97.41
2019-01-17T06:50:01.190Z,97.20
2019-01-17T06:51:01.178Z,96.78
2019-01-17T06:52:01.165Z,96.47
2019-01-17T06:53:01.203Z,96.58
2019-01-17T06:54:01.145Z,96.68
2019-01-17T06:55:01.135Z,96.78
2019-01-17T06:56:01.163Z,96.89
2019-01-17T06:57:01.112Z,96.99
2019-01-17T06:58:01.100Z,96.99
2019-01-17T06:59:01.089Z,96.89
2019-01-17T07:00:01.078Z,97.03
2019-01-17T07:01:01.067Z,97.24
2019-01-17T07:02:01.057Z,97.24
2019-01-17T07:03:01.046Z,97.24
2019-01-17T07:04:01.035Z,97.03
2019-01-17T07:05:01.025Z,97.10
2019-01-17T07:06:01.012Z,97.24
2019-01-17T07:07:01.001Z,97.03
2019-01-17T07:08:00.992Z,96.52
2019-01-17T07:09:00.981Z,96.52
2019-01-17T07:10:00.971Z,96.52
2019-01-17T07:11:00.960Z,96.47
2019-01-17T07:12:00.948Z,95.64
2019-01-17T07:13:00.939Z,95.03
2019-01-17T07:14:00.926Z,95.03
2019-01-17T07:15:00.927Z,95.44
2019-01-17T07:16:00.905Z,95.34
2019-01-17T07:17:00.895Z,95.34
2019-01-17T07:18:00.883Z,95.44
2019-01-17T07:19:00.873Z,95.44
2019-01-17T07:20:00.861Z,95.13
2019-01-17T07:21:00.848Z,95.23
2019-01-17T07:22:00.838Z,95.23
2019-01-17T07:23:00.828Z,95.64
2019-01-17T07:24:00.817Z,95.44
2019-01-17T07:25:00.814Z,95.39
2019-01-17T07:26:00.796Z,95.29
2019-01-17T07:27:00.784Z,95.19
2019-01-17T07:28:00.772Z,95.19
2019-01-17T07:29:00.763Z,94.57
2019-01-17T07:30:00.756Z,94.26
2019-01-17T07:31:00.744Z,94.15
2019-01-17T07:32:00.733Z,94.26
2019-01-17T07:33:00.720Z,93.90
2019-01-17T07:34:00.709Z,93.59
2019-01-17T07:35:00.696Z,93.59
2019-01-17T07:36:00.686Z,93.59
2019-01-17T07:37:00.678Z,93.80
2019-01-17T07:38:00.667Z,94.05
2019-01-17T07:39:00.654Z,94.47
2019-01-17T07:40:00.643Z,94.57
2019-01-17T07:41:00.632Z,94.47
2019-01-17T07:42:00.624Z,94.05
2019-01-17T07:43:00.610Z,94.15
2019-01-17T07:44:00.598Z,94.67
2019-01-17T07:45:00.587Z,94.88
2019-01-17T07:46:00.576Z,95.08
2019-01-17T07:47:00.567Z,95.08
2019-01-17T07:48:00.558Z,94.57
2019-01-17T07:49:00.545Z,94.36
2019-01-17T07:50:00.535Z,94.26
2019-01-17T07:51:00.523Z,94.57
2019-01-17T07:52:00.511Z,94.47
2019-01-17T07:53:00.518Z,94.15
2019-01-17T07:54:00.491Z,94.05
2019-01-17T07:55:00.482Z,94.05
2019-01-17T07:56:00.468Z,94.26
2019-01-17T07:57:00.458Z,94.47
2019-01-17T07:58:00.447Z,94.67
2019-01-17T07:59:00.437Z,94.88
2019-01-17T08:00:00.426Z,95.23
2019-01-17T08:01:00.416Z,95.34
2019-01-17T08:02:00.403Z,94.92
2019-01-17T08:03:00.394Z,94.92
2019-01-17T08:04:00.382Z,95.34
2019-01-17T08:05:00.372Z,95.95
2019-01-17T08:06:00.368Z,96.06
2019-01-17T08:07:00.348Z,95.85
2019-01-17T08:08:00.339Z,96.06
2019-01-17T08:09:00.330Z,96.06
2019-01-17T08:10:00.324Z,95.95
2019-01-17T08:11:00.309Z,95.95
2019-01-17T08:12:05.017Z,96.06
2019-01-17T08:13:00.286Z,95.70
2019-01-17T08:14:00.274Z,95.50
2019-01-17T08:15:00.267Z,94.98
2019-01-17T08:16:00.254Z,95.50
2019-01-17T08:17:00.246Z,95.39
2019-01-17T08:18:00.232Z,95.29
2019-01-17T08:19:00.220Z,95.03
2019-01-17T08:20:00.209Z,95.34
2019-01-17T08:21:00.208Z,95.54
2019-01-17T08:22:00.190Z,95.54
2019-01-17T08:23:00.178Z,95.54
2019-01-17T08:24:00.169Z,95.70
2019-01-17T08:25:00.173Z,95.29
2019-01-17T08:26:00.147Z,94.98
2019-01-17T08:27:00.135Z,95.08
2019-01-17T08:28:00.123Z,94.47
2019-01-17T08:29:00.115Z,94.47
2019-01-17T08:30:00.156Z,94.05
2019-01-17T08:31:00.092Z,94.15
2019-01-17T08:32:00.082Z,93.84
2019-01-17T08:33:00.072Z,93.32
2019-01-17T08:34:00.061Z,93.32
2019-01-17T08:35:00.052Z,93.74
2019-01-17T08:36:00.036Z,94.05
2019-01-17T08:37:00.028Z,94.05
2019-01-17T08:38:00.019Z,93.43
2019-01-17T08:39:00.011Z,93.12
2019-01-17T08:39:59.995Z,93.43
2019-01-17T08:40:59.984Z,92.40
2019-01-17T08:41:59.974Z,92.87
2019-01-17T08:43:00.007Z,92.87
2019-01-17T08:43:59.950Z,92.52
2019-01-17T08:44:59.944Z,92.21
2019-01-17T08:45:59.930Z,91.27
2019-01-17T08:46:59.921Z,92.10
2019-01-17T08:47:59.908Z,92.72
2019-01-17T08:48:59.898Z,92.93
2019-01-17T08:49:59.887Z,93.03
2019-01-17T08:50:59.878Z,93.24
2019-01-17T08:51:59.869Z,92.72
2019-01-17T08:52:59.858Z,92.52
2019-01-17T08:53:59.846Z,92.31
2019-01-17T08:54:59.835Z,92.52
2019-01-17T08:56:00.934Z,92.82
2019-01-17T08:56:59.812Z,92.82
2019-01-17T08:57:59.800Z,92.93
2019-01-17T08:58:59.795Z,93.03
2019-01-17T08:59:59.784Z,93.03
2019-01-17T09:00:59.771Z,92.58
2019-01-17T09:01:59.756Z,92.06
2019-01-17T09:02:59.748Z,91.96
2019-01-17T09:03:59.737Z,92.21
2019-01-17T09:04:59.725Z,91.65
2019-01-17T09:05:59.719Z,91.44
2019-01-17T09:06:59.703Z,90.93
2019-01-17T09:07:59.693Z,91.38
2019-01-17T09:09:00.674Z,91.33
2019-01-17T09:09:59.671Z,90.76
2019-01-17T09:10:59.664Z,90.45
2019-01-17T09:11:59.651Z,90.45
2019-01-17T09:12:59.639Z,89.93
2019-01-17T09:13:59.628Z,90.55
2019-01-17T09:14:59.617Z,90.35
2019-01-17T09:15:59.608Z,90.35
2019-01-17T09:16:59.597Z,91.38
2019-01-17T09:17:59.587Z,90.14
2019-01-17T09:18:59.574Z,89.48
2019-01-17T09:19:59.561Z,89.78
2019-01-17T09:20:59.552Z,89.58
2019-01-17T09:21:59.548Z,89.64
2019-01-17T09:22:59.533Z,90.67
2019-01-17T09:23:59.520Z,88.98
2019-01-17T09:24:59.512Z,88.57
2019-01-17T09:25:59.500Z,88.26
2019-01-17T09:26:59.488Z,88.67
2019-01-17T09:27:59.479Z,88.98
2019-01-17T09:28:59.468Z,89.29
2019-01-17T09:29:59.468Z,89.23
2019-01-17T09:30:59.445Z,90.26
2019-01-17T09:31:59.435Z,89.44
2019-01-17T09:32:59.423Z,89.54
2019-01-17T09:33:59.414Z,89.95
2019-01-17T09:34:59.402Z,90.78
2019-01-17T09:35:59.392Z,91.40
2019-01-17T09:36:59.381Z,92.33
2019-01-17T09:37:59.371Z,92.23
2019-01-17T09:38:59.363Z,91.81
2019-01-17T09:39:59.349Z,91.50
2019-01-17T09:40:59.339Z,91.46
2019-01-17T09:41:59.330Z,90.63
2019-01-17T09:42:59.320Z,90.11
2019-01-17T09:43:59.308Z,89.29
2019-01-17T09:44:59.293Z,90.02
2019-01-17T09:45:59.285Z,90.32
2019-01-17T09:46:59.280Z,90.32
2019-01-17T09:47:59.260Z,90.53
2019-01-17T09:48:59.250Z,90.63
2019-01-17T09:49:59.241Z,89.54
2019-01-17T09:50:59.231Z,89.54
2019-01-17T09:51:59.220Z,89.91
2019-01-17T09:52:59.211Z,90.53
2019-01-17T09:53:59.197Z,89.81
2019-01-17T09:54:59.187Z,91.19
2019-01-17T09:55:59.174Z,91.60
2019-01-17T09:56:59.164Z,91.40
2019-01-17T09:57:59.154Z,90.67
2019-01-17T09:58:59.144Z,90.16
2019-01-17T09:59:59.133Z,90.05
2019-01-17T10:00:59.126Z,90.78
2019-01-17T10:01:59.122Z,90.67
2019-01-17T10:02:59.099Z,90.57
2019-01-17T10:03:59.088Z,90.78
2019-01-17T10:04:59.077Z,91.87
2019-01-17T10:05:59.068Z,90.32
2019-01-17T10:06:59.060Z,90.32
2019-01-17T10:07:59.047Z,90.11
2019-01-17T10:08:59.037Z,90.32
2019-01-17T10:09:59.025Z,90.94
2019-01-17T10:10:59.015Z,91.81
2019-01-17T10:11:59.003Z,92.23
2019-01-17T10:12:58.992Z,92.43
2019-01-17T10:13:58.985Z,92.12
2019-01-17T10:14:58.973Z,92.29
2019-01-17T10:15:58.965Z,92.18
2019-01-17T10:16:58.949Z,91.46
2019-01-17T10:17:58.939Z,89.81
2019-01-17T10:18:58.929Z,89.97
2019-01-17T10:19:58.917Z,89.45
2019-01-17T10:20:58.908Z,89.45
2019-01-17T10:21:58.901Z,87.60
2019-01-17T10:22:58.885Z,87.15
2019-01-17T10:23:58.875Z,86.42
2019-01-17T10:24:58.863Z,86.52
2019-01-17T10:25:58.854Z,87.45
2019-01-17T10:26:58.844Z,86.63
2019-01-17T10:27:58.829Z,87.56
2019-01-17T10:28:59.991Z,88.48
2019-01-17T10:29:58.808Z,87.35
2019-01-17T10:30:58.799Z,87.70
2019-01-17T10:31:59.574Z,88.42
2019-01-17T10:32:58.777Z,86.26
2019-01-17T10:33:58.767Z,87.18
2019-01-17T10:34:58.755Z,87.50
2019-01-17T10:35:58.744Z,86.67
2019-01-17T10:36:58.736Z,87.91
2019-01-17T10:37:58.723Z,87.91
2019-01-17T10:38:58.711Z,86.98
2019-01-17T10:39:58.705Z,88.22
2019-01-17T10:40:58.692Z,87.97
2019-01-17T10:41:58.678Z,86.98
2019-01-17T10:42:58.669Z,87.91
2019-01-17T10:43:58.658Z,87.66
2019-01-17T10:44:58.651Z,86.73
2019-01-17T10:45:58.634Z,87.35
2019-01-17T10:46:58.623Z,85.70
2019-01-17T10:48:00.310Z,85.94
2019-01-17T10:48:58.602Z,87.25
2019-01-17T10:49:58.595Z,85.74
2019-01-17T10:50:58.583Z,85.74
2019-01-17T10:51:58.568Z,86.26
2019-01-17T10:52:58.558Z,85.74
2019-01-17T10:53:58.547Z,84.36
2019-01-17T10:54:58.536Z,85.39
2019-01-17T10:55:58.527Z,84.98
2019-01-17T10:56:58.513Z,83.95
2019-01-17T10:57:58.504Z,82.44
2019-01-17T10:58:58.491Z,83.99
2019-01-17T10:59:58.484Z,84.91
2019-01-17T11:00:58.471Z,84.40
2019-01-17T11:01:58.462Z,85.12
2019-01-17T11:02:58.448Z,83.67
2019-01-17T11:03:58.438Z,84.30
2019-01-17T11:04:58.429Z,85.22
2019-01-17T11:05:58.416Z,83.88
2019-01-17T11:06:58.408Z,83.12
2019-01-17T11:07:58.435Z,84.77
2019-01-17T11:08:58.389Z,84.30
2019-01-17T11:09:58.373Z,84.16
2019-01-17T11:10:58.362Z,84.16
2019-01-17T11:11:58.349Z,83.02
2019-01-17T11:12:58.341Z,83.64
2019-01-17T11:13:58.329Z,84.67
2019-01-17T11:14:58.320Z,84.67
2019-01-17T11:15:58.310Z,80.13
2019-01-17T11:16:58.295Z,81.47
2019-01-17T11:17:58.291Z,82.71
2019-01-17T11:18:58.275Z,83.43
2019-01-17T11:19:58.264Z,80.75
2019-01-17T11:20:58.252Z,81.78
2019-01-17T11:21:58.241Z,82.29
2019-01-17T11:22:58.231Z,82.50
2019-01-17T11:23:58.221Z,80.54
2019-01-17T11:24:58.212Z,81.06
2019-01-17T11:25:58.207Z,81.37
2019-01-17T11:26:58.187Z,79.30
2019-01-17T11:27:58.174Z,81.17
2019-01-17T11:28:58.177Z,82.29
2019-01-17T11:29:58.154Z,80.85
2019-01-17T11:30:58.143Z,79.82
2019-01-17T11:31:58.131Z,79.00
2019-01-17T11:32:58.120Z,80.71
2019-01-17T11:33:58.127Z,80.30
2019-01-17T11:34:58.100Z,80.82
2019-01-17T11:35:58.088Z,81.81
2019-01-17T11:36:58.078Z,80.26
2019-01-17T11:37:58.065Z,78.72
2019-01-17T11:38:58.055Z,80.82
2019-01-17T11:39:58.046Z,81.64
2019-01-17T11:40:58.035Z,82.88
2019-01-17T11:41:58.023Z,80.61
2019-01-17T11:42:58.013Z,78.55
2019-01-17T11:43:58.001Z,77.93
2019-01-17T11:44:57.991Z,79.13
2019-01-17T11:45:57.979Z,78.51
2019-01-17T11:46:57.974Z,78.41
2019-01-17T11:47:57.960Z,78.61
2019-01-17T11:48:57.945Z,79.54
2019-01-17T11:49:57.937Z,80.68
2019-01-17T11:50:57.924Z,79.23
2019-01-17T11:51:57.920Z,80.57
2019-01-17T11:52:57.902Z,80.16
2019-01-17T11:53:57.892Z,81.33
2019-01-17T11:54:57.880Z,80.68
2019-01-17T11:55:57.869Z,80.51
2019-01-17T11:56:57.859Z,83.39
2019-01-17T11:57:57.846Z,82.57
2019-01-17T11:59:00.214Z,82.88
2019-01-17T11:59:57.825Z,84.63
2019-01-17T12:00:57.816Z,83.91
2019-01-17T12:01:57.801Z,84.11
2019-01-17T12:02:57.796Z,83.46
2019-01-17T12:03:57.782Z,84.39
2019-01-17T12:04:57.769Z,82.05
2019-01-17T12:05:57.760Z,82.78
2019-01-17T12:06:57.748Z,84.32
2019-01-17T12:07:57.736Z,84.83
2019-01-17T12:08:57.727Z,84.42
2019-01-17T12:09:57.716Z,84.01
2019-01-17T12:10:57.705Z,84.83
2019-01-17T12:11:57.694Z,86.18
2019-01-17T12:12:57.680Z,88.24
2019-01-17T12:13:57.673Z,89.21
2019-01-17T12:14:57.662Z,88.07
2019-01-17T12:15:57.649Z,86.84
2019-01-17T12:16:57.641Z,88.69
2019-01-17T12:17:57.627Z,87.60
2019-01-17T12:18:57.621Z,89.19
2019-01-17T12:19:57.604Z,89.60
2019-01-17T12:20:57.595Z,89.95
2019-01-17T12:21:57.585Z,90.36
2019-01-17T12:22:57.574Z,90.78
2019-01-17T12:23:57.563Z,90.30
2019-01-17T12:24:57.552Z,90.72
2019-01-17T12:25:57.542Z,91.58
2019-01-17T12:26:57.528Z,91.07
2019-01-17T12:27:57.518Z,92.00
2019-01-17T12:28:57.507Z,91.07
2019-01-17T12:29:57.501Z,91.13
2019-01-17T12:30:57.496Z,91.96
2019-01-17T12:31:57.474Z,91.33
2019-01-17T12:32:57.462Z,91.54
2019-01-17T12:33:57.455Z,91.75
2019-01-17T12:34:57.442Z,90.93
2019-01-17T12:35:57.432Z,92.23
2019-01-17T12:36:57.421Z,91.40
2019-01-17T12:37:57.407Z,90.99
2019-01-17T12:38:57.404Z,90.10
2019-01-17T12:39:57.388Z,91.91
2019-01-17T12:40:57.376Z,92.43
2019-01-17T12:41:57.369Z,91.71
2019-01-17T12:42:57.353Z,91.29
2019-01-17T12:43:57.344Z,90.36
2019-01-17T12:44:57.334Z,90.57
2019-01-17T12:45:57.322Z,89.75
2019-01-17T12:46:57.311Z,89.64
2019-01-17T12:47:57.301Z,90.78
2019-01-17T12:48:57.288Z,89.23
2019-01-17T12:49:57.280Z,88.20
2019-01-17T12:50:57.368Z,88.92
2019-01-17T12:51:57.256Z,88.81